sensor_id;sensor_type;location;lat;lon;timestamp;P1;durP1;ratioP1;P2;durP2;ratioP2
24411;SDS011;12544;46.760;15.942;2023-08-06T00:00:21;0.50;;;0.50;;
24411;SDS011;12544;46.760;15.942;2023-08-06T00:02:47;1.15;;;0.68;;
24411;SDS011;12544;46.760;15.942;2023-08-06T00:05:13;1.52;;;0.55;;
24411;SDS011;12544;46.760;15.942;2023-08-06T00:07:38;0.65;;;0.52;;
24411;SDS011;12544;46.760;15.942;2023-08-06T00:10:04;2.17;;;0.50;;
24411;SDS011;12544;46.760;15.942;2023-08-06T00:12:30;0.80;;;0.50;;
24411;SDS011;12544;46.760;15.942;2023-08-06T00:14:56;0.68;;;0.50;;
24411;SDS011;12544;46.760;15.942;2023-08-06T00:17:21;0.60;;;0.57;;
24411;SDS011;12544;46.760;15.942;2023-08-06T00:19:47;0.82;;;0.60;;
24411;SDS011;12544;46.760;15.942;2023-08-06T00:22:12;0.50;;;0.50;;
24411;SDS011;12544;46.760;15.942;2023-08-06T00:24:38;2.33;;;0.60;;
24411;SDS011;12544;46.760;15.942;2023-08-06T00:27:04;3.38;;;0.70;;
24411;SDS011;12544;46.760;15.942;2023-08-06T00:29:29;2.20;;;0.70;;
24411;SDS011;12544;46.760;15.942;2023-08-06T00:31:55;1.20;;;0.63;;
24411;SDS011;12544;46.760;15.942;2023-08-06T00:34:21;2.35;;;0.50;;
24411;SDS011;12544;46.760;15.942;2023-08-06T00:36:46;1.27;;;0.60;;
24411;SDS011;12544;46.760;15.942;2023-08-06T00:39:12;0.85;;;0.50;;
24411;SDS011;12544;46.760;15.942;2023-08-06T00:41:38;2.58;;;0.63;;
24411;SDS011;12544;46.760;15.942;2023-08-06T00:44:04;2.63;;;0.50;;
24411;SDS011;12544;46.760;15.942;2023-08-06T00:46:30;1.73;;;0.60;;
24411;SDS011;12544;46.760;15.942;2023-08-06T00:48:57;1.75;;;0.60;;
24411;SDS011;12544;46.760;15.942;2023-08-06T00:51:23;1.23;;;0.45;;
24411;SDS011;12544;46.760;15.942;2023-08-06T00:53:49;1.02;;;0.50;;
24411;SDS011;12544;46.760;15.942;2023-08-06T00:56:16;1.00;;;0.63;;
24411;SDS011;12544;46.760;15.942;2023-08-06T00:58:42;2.40;;;0.93;;
24411;SDS011;12544;46.760;15.942;2023-08-06T01:01:07;1.00;;;0.60;;
24411;SDS011;12544;46.760;15.942;2023-08-06T01:03:33;0.40;;;0.40;;
24411;SDS011;12544;46.760;15.942;2023-08-06T01:06:00;1.08;;;0.50;;
24411;SDS011;12544;46.760;15.942;2023-08-06T01:13:32;0.73;;;0.57;;
24411;SDS011;12544;46.760;15.942;2023-08-06T01:16:19;1.42;;;0.60;;
24411;SDS011;12544;46.760;15.942;2023-08-06T01:18:49;2.33;;;0.68;;
24411;SDS011;12544;46.760;15.942;2023-08-06T01:21:16;4.55;;;0.82;;
24411;SDS011;12544;46.760;15.942;2023-08-06T01:23:42;0.60;;;0.50;;
24411;SDS011;12544;46.760;15.942;2023-08-06T01:26:11;1.30;;;0.45;;
24411;SDS011;12544;46.760;15.942;2023-08-06T01:31:37;1.75;;;0.47;;
24411;SDS011;12544;46.760;15.942;2023-08-06T01:34:08;0.65;;;0.65;;
24411;SDS011;12544;46.760;15.942;2023-08-06T01:36:38;5.18;;;0.60;;
24411;SDS011;12544;46.760;15.942;2023-08-06T01:39:05;5.05;;;0.60;;
24411;SDS011;12544;46.760;15.942;2023-08-06T01:41:30;0.90;;;0.47;;
24411;SDS011;12544;46.760;15.942;2023-08-06T01:43:56;1.55;;;0.40;;
24411;SDS011;12544;46.760;15.942;2023-08-06T01:46:22;0.98;;;0.50;;
24411;SDS011;12544;46.760;15.942;2023-08-06T01:48:47;1.08;;;0.50;;
24411;SDS011;12544;46.760;15.942;2023-08-06T01:51:13;2.92;;;0.50;;
24411;SDS011;12544;46.760;15.942;2023-08-06T01:53:38;2.90;;;0.50;;
24411;SDS011;12544;46.760;15.942;2023-08-06T01:56:11;1.55;;;0.50;;
24411;SDS011;12544;46.760;15.942;2023-08-06T01:58:36;1.27;;;0.68;;
24411;SDS011;12544;46.760;15.942;2023-08-06T02:01:02;1.65;;;0.40;;
24411;SDS011;12544;46.760;15.942;2023-08-06T02:03:28;1.95;;;0.30;;
24411;SDS011;12544;46.760;15.942;2023-08-06T02:05:53;2.85;;;0.50;;
24411;SDS011;12544;46.760;15.942;2023-08-06T02:08:19;0.75;;;0.40;;
24411;SDS011;12544;46.760;15.942;2023-08-06T02:10:45;1.27;;;0.60;;
24411;SDS011;12544;46.760;15.942;2023-08-06T02:13:10;0.43;;;0.30;;
24411;SDS011;12544;46.760;15.942;2023-08-06T02:15:41;0.38;;;0.30;;
24411;SDS011;12544;46.760;15.942;2023-08-06T02:18:08;0.73;;;0.40;;
24411;SDS011;12544;46.760;15.942;2023-08-06T02:20:34;0.90;;;0.40;;
24411;SDS011;12544;46.760;15.942;2023-08-06T02:22:59;0.98;;;0.30;;
24411;SDS011;12544;46.760;15.942;2023-08-06T02:25:25;0.90;;;0.40;;
24411;SDS011;12544;46.760;15.942;2023-08-06T02:27:50;0.75;;;0.40;;
24411;SDS011;12544;46.760;15.942;2023-08-06T02:30:16;0.90;;;0.40;;
24411;SDS011;12544;46.760;15.942;2023-08-06T02:32:42;0.70;;;0.40;;
24411;SDS011;12544;46.760;15.942;2023-08-06T02:35:07;0.65;;;0.50;;
24411;SDS011;12544;46.760;15.942;2023-08-06T02:37:33;0.32;;;0.32;;
24411;SDS011;12544;46.760;15.942;2023-08-06T02:39:59;1.80;;;0.60;;
24411;SDS011;12544;46.760;15.942;2023-08-06T02:42:25;0.90;;;0.32;;
24411;SDS011;12544;46.760;15.942;2023-08-06T02:44:52;4.50;;;0.50;;
24411;SDS011;12544;46.760;15.942;2023-08-06T02:47:20;1.40;;;0.55;;
24411;SDS011;12544;46.760;15.942;2023-08-06T02:49:46;0.95;;;0.40;;
24411;SDS011;12544;46.760;15.942;2023-08-06T02:52:11;2.38;;;0.45;;
24411;SDS011;12544;46.760;15.942;2023-08-06T02:54:37;2.05;;;0.50;;
24411;SDS011;12544;46.760;15.942;2023-08-06T02:57:03;1.23;;;0.45;;
24411;SDS011;12544;46.760;15.942;2023-08-06T02:59:30;2.22;;;0.70;;
24411;SDS011;12544;46.760;15.942;2023-08-06T03:01:55;1.83;;;0.32;;
24411;SDS011;12544;46.760;15.942;2023-08-06T03:04:21;0.40;;;0.40;;
24411;SDS011;12544;46.760;15.942;2023-08-06T03:06:47;0.63;;;0.40;;
24411;SDS011;12544;46.760;15.942;2023-08-06T03:09:17;0.85;;;0.40;;
24411;SDS011;12544;46.760;15.942;2023-08-06T03:11:43;0.40;;;0.40;;
24411;SDS011;12544;46.760;15.942;2023-08-06T03:14:08;0.80;;;0.47;;
24411;SDS011;12544;46.760;15.942;2023-08-06T03:16:34;1.10;;;0.38;;
24411;SDS011;12544;46.760;15.942;2023-08-06T03:19:00;0.80;;;0.50;;
24411;SDS011;12544;46.760;15.942;2023-08-06T03:21:26;0.40;;;0.40;;
24411;SDS011;12544;46.760;15.942;2023-08-06T03:23:51;1.20;;;0.40;;
24411;SDS011;12544;46.760;15.942;2023-08-06T03:26:17;0.93;;;0.75;;
24411;SDS011;12544;46.760;15.942;2023-08-06T03:28:43;1.85;;;0.47;;
24411;SDS011;12544;46.760;15.942;2023-08-06T03:31:08;1.20;;;0.50;;
24411;SDS011;12544;46.760;15.942;2023-08-06T03:33:34;3.15;;;0.50;;
24411;SDS011;12544;46.760;15.942;2023-08-06T03:36:00;0.88;;;0.50;;
24411;SDS011;12544;46.760;15.942;2023-08-06T03:38:25;1.27;;;0.70;;
24411;SDS011;12544;46.760;15.942;2023-08-06T03:40:51;1.13;;;0.70;;
24411;SDS011;12544;46.760;15.942;2023-08-06T03:43:17;1.23;;;0.60;;
24411;SDS011;12544;46.760;15.942;2023-08-06T03:45:42;0.55;;;0.55;;
24411;SDS011;12544;46.760;15.942;2023-08-06T03:48:08;1.35;;;0.68;;
24411;SDS011;12544;46.760;15.942;2023-08-06T03:50:35;0.70;;;0.70;;
24411;SDS011;12544;46.760;15.942;2023-08-06T03:53:00;0.85;;;0.60;;
24411;SDS011;12544;46.760;15.942;2023-08-06T03:55:26;1.02;;;0.60;;
24411;SDS011;12544;46.760;15.942;2023-08-06T03:57:52;0.68;;;0.68;;
24411;SDS011;12544;46.760;15.942;2023-08-06T04:00:18;2.17;;;0.60;;
24411;SDS011;12544;46.760;15.942;2023-08-06T04:02:43;4.03;;;0.73;;
24411;SDS011;12544;46.760;15.942;2023-08-06T04:05:09;1.05;;;0.50;;
24411;SDS011;12544;46.760;15.942;2023-08-06T04:07:35;0.60;;;0.60;;
24411;SDS011;12544;46.760;15.942;2023-08-06T04:10:02;1.42;;;0.70;;
24411;SDS011;12544;46.760;15.942;2023-08-06T04:12:29;2.85;;;1.00;;
24411;SDS011;12544;46.760;15.942;2023-08-06T04:14:57;1.75;;;0.80;;
24411;SDS011;12544;46.760;15.942;2023-08-06T04:17:23;0.90;;;0.80;;
24411;SDS011;12544;46.760;15.942;2023-08-06T04:19:49;1.42;;;0.60;;
24411;SDS011;12544;46.760;15.942;2023-08-06T04:22:17;3.22;;;0.70;;
24411;SDS011;12544;46.760;15.942;2023-08-06T04:24:43;0.75;;;0.75;;
24411;SDS011;12544;46.760;15.942;2023-08-06T04:27:09;1.40;;;0.75;;
24411;SDS011;12544;46.760;15.942;2023-08-06T04:29:35;0.60;;;0.60;;
24411;SDS011;12544;46.760;15.942;2023-08-06T04:32:03;0.73;;;0.73;;
24411;SDS011;12544;46.760;15.942;2023-08-06T04:34:30;0.75;;;0.70;;
24411;SDS011;12544;46.760;15.942;2023-08-06T04:36:56;0.85;;;0.68;;
24411;SDS011;12544;46.760;15.942;2023-08-06T04:39:21;1.20;;;0.80;;
24411;SDS011;12544;46.760;15.942;2023-08-06T04:41:47;0.82;;;0.70;;
24411;SDS011;12544;46.760;15.942;2023-08-06T04:44:12;1.25;;;0.73;;
24411;SDS011;12544;46.760;15.942;2023-08-06T04:46:38;3.33;;;0.80;;
24411;SDS011;12544;46.760;15.942;2023-08-06T04:49:03;3.78;;;1.05;;
24411;SDS011;12544;46.760;15.942;2023-08-06T04:51:29;1.42;;;1.25;;
24411;SDS011;12544;46.760;15.942;2023-08-06T04:53:56;6.25;;;1.33;;
24411;SDS011;12544;46.760;15.942;2023-08-06T04:56:22;4.03;;;1.75;;
24411;SDS011;12544;46.760;15.942;2023-08-06T04:58:47;3.88;;;1.40;;
24411;SDS011;12544;46.760;15.942;2023-08-06T05:01:13;1.75;;;1.52;;
24411;SDS011;12544;46.760;15.942;2023-08-06T05:03:39;4.95;;;1.45;;
24411;SDS011;12544;46.760;15.942;2023-08-06T05:06:04;1.77;;;1.50;;
24411;SDS011;12544;46.760;15.942;2023-08-06T05:08:30;2.13;;;1.90;;
24411;SDS011;12544;46.760;15.942;2023-08-06T05:10:55;1.85;;;1.70;;
24411;SDS011;12544;46.760;15.942;2023-08-06T05:13:21;2.20;;;2.00;;
24411;SDS011;12544;46.760;15.942;2023-08-06T05:15:47;1.77;;;1.55;;
24411;SDS011;12544;46.760;15.942;2023-08-06T05:18:12;2.03;;;1.88;;
24411;SDS011;12544;46.760;15.942;2023-08-06T05:20:39;2.08;;;1.98;;
24411;SDS011;12544;46.760;15.942;2023-08-06T05:23:06;3.72;;;2.03;;
24411;SDS011;12544;46.760;15.942;2023-08-06T05:25:34;2.30;;;2.10;;
24411;SDS011;12544;46.760;15.942;2023-08-06T05:28:00;3.60;;;2.10;;
24411;SDS011;12544;46.760;15.942;2023-08-06T05:30:26;1.80;;;1.70;;
24411;SDS011;12544;46.760;15.942;2023-08-06T05:32:52;0.95;;;0.82;;
24411;SDS011;12544;46.760;15.942;2023-08-06T05:35:18;0.82;;;0.82;;
24411;SDS011;12544;46.760;15.942;2023-08-06T05:37:44;1.70;;;0.90;;
24411;SDS011;12544;46.760;15.942;2023-08-06T05:40:09;2.40;;;0.90;;
24411;SDS011;12544;46.760;15.942;2023-08-06T05:42:35;2.90;;;0.80;;
24411;SDS011;12544;46.760;15.942;2023-08-06T05:45:00;1.20;;;0.63;;
24411;SDS011;12544;46.760;15.942;2023-08-06T05:47:26;2.83;;;0.73;;
24411;SDS011;12544;46.760;15.942;2023-08-06T05:49:52;2.53;;;0.75;;
24411;SDS011;12544;46.760;15.942;2023-08-06T05:52:17;0.75;;;0.70;;
24411;SDS011;12544;46.760;15.942;2023-08-06T05:54:43;1.25;;;0.68;;
24411;SDS011;12544;46.760;15.942;2023-08-06T05:57:08;0.73;;;0.73;;
24411;SDS011;12544;46.760;15.942;2023-08-06T05:59:34;1.58;;;0.88;;
24411;SDS011;12544;46.760;15.942;2023-08-06T06:01:59;0.80;;;0.80;;
24411;SDS011;12544;46.760;15.942;2023-08-06T06:04:25;1.60;;;0.60;;
24411;SDS011;12544;46.760;15.942;2023-08-06T06:06:51;1.38;;;0.60;;
24411;SDS011;12544;46.760;15.942;2023-08-06T06:09:16;1.88;;;0.60;;
24411;SDS011;12544;46.760;15.942;2023-08-06T06:11:42;1.63;;;0.60;;
24411;SDS011;12544;46.760;15.942;2023-08-06T06:14:08;0.65;;;0.57;;
24411;SDS011;12544;46.760;15.942;2023-08-06T06:16:33;0.50;;;0.50;;
24411;SDS011;12544;46.760;15.942;2023-08-06T06:18:59;0.50;;;0.50;;
24411;SDS011;12544;46.760;15.942;2023-08-06T06:21:25;1.05;;;0.50;;
24411;SDS011;12544;46.760;15.942;2023-08-06T06:23:50;0.60;;;0.60;;
24411;SDS011;12544;46.760;15.942;2023-08-06T06:26:19;2.05;;;0.60;;
24411;SDS011;12544;46.760;15.942;2023-08-06T06:28:45;1.30;;;0.60;;
24411;SDS011;12544;46.760;15.942;2023-08-06T06:31:10;1.05;;;0.40;;
24411;SDS011;12544;46.760;15.942;2023-08-06T06:33:36;1.30;;;0.50;;
24411;SDS011;12544;46.760;15.942;2023-08-06T06:36:01;0.57;;;0.50;;
24411;SDS011;12544;46.760;15.942;2023-08-06T06:38:28;1.58;;;0.43;;
24411;SDS011;12544;46.760;15.942;2023-08-06T06:40:55;0.93;;;0.55;;
24411;SDS011;12544;46.760;15.942;2023-08-06T06:43:23;0.68;;;0.68;;
24411;SDS011;12544;46.760;15.942;2023-08-06T06:45:53;0.40;;;0.40;;
24411;SDS011;12544;46.760;15.942;2023-08-06T06:48:25;0.40;;;0.35;;
24411;SDS011;12544;46.760;15.942;2023-08-06T06:50:52;0.40;;;0.40;;
24411;SDS011;12544;46.760;15.942;2023-08-06T06:53:17;0.38;;;0.38;;
24411;SDS011;12544;46.760;15.942;2023-08-06T06:55:43;0.52;;;0.50;;
24411;SDS011;12544;46.760;15.942;2023-08-06T06:58:09;0.60;;;0.60;;
24411;SDS011;12544;46.760;15.942;2023-08-06T07:00:38;0.60;;;0.60;;
24411;SDS011;12544;46.760;15.942;2023-08-06T07:03:03;0.70;;;0.60;;
24411;SDS011;12544;46.760;15.942;2023-08-06T07:05:29;0.80;;;0.50;;
24411;SDS011;12544;46.760;15.942;2023-08-06T07:07:55;0.77;;;0.55;;
24411;SDS011;12544;46.760;15.942;2023-08-06T07:10:20;0.60;;;0.60;;
24411;SDS011;12544;46.760;15.942;2023-08-06T07:12:46;1.00;;;0.60;;
24411;SDS011;12544;46.760;15.942;2023-08-06T07:15:11;1.55;;;0.73;;
24411;SDS011;12544;46.760;15.942;2023-08-06T07:17:37;0.88;;;0.70;;
24411;SDS011;12544;46.760;15.942;2023-08-06T07:20:03;1.15;;;0.80;;
24411;SDS011;12544;46.760;15.942;2023-08-06T07:22:29;0.60;;;0.60;;
24411;SDS011;12544;46.760;15.942;2023-08-06T07:24:55;1.13;;;0.80;;
24411;SDS011;12544;46.760;15.942;2023-08-06T07:27:20;1.00;;;0.90;;
24411;SDS011;12544;46.760;15.942;2023-08-06T07:29:46;1.50;;;1.00;;
24411;SDS011;12544;46.760;15.942;2023-08-06T07:32:13;1.13;;;0.90;;
24411;SDS011;12544;46.760;15.942;2023-08-06T07:34:39;1.52;;;1.05;;
24411;SDS011;12544;46.760;15.942;2023-08-06T07:37:05;1.00;;;0.90;;
24411;SDS011;12544;46.760;15.942;2023-08-06T07:39:31;1.10;;;0.77;;
24411;SDS011;12544;46.760;15.942;2023-08-06T07:41:56;1.27;;;0.80;;
24411;SDS011;12544;46.760;15.942;2023-08-06T07:44:22;0.82;;;0.50;;
24411;SDS011;12544;46.760;15.942;2023-08-06T07:46:48;2.35;;;0.70;;
24411;SDS011;12544;46.760;15.942;2023-08-06T07:49:14;1.40;;;0.60;;
24411;SDS011;12544;46.760;15.942;2023-08-06T07:51:40;0.73;;;0.55;;
24411;SDS011;12544;46.760;15.942;2023-08-06T07:54:05;0.57;;;0.52;;
24411;SDS011;12544;46.760;15.942;2023-08-06T07:56:32;0.75;;;0.50;;
24411;SDS011;12544;46.760;15.942;2023-08-06T07:58:57;1.88;;;0.73;;
24411;SDS011;12544;46.760;15.942;2023-08-06T08:01:23;0.80;;;0.60;;
24411;SDS011;12544;46.760;15.942;2023-08-06T08:03:48;1.17;;;0.60;;
24411;SDS011;12544;46.760;15.942;2023-08-06T08:06:14;2.05;;;0.60;;
24411;SDS011;12544;46.760;15.942;2023-08-06T08:08:39;0.70;;;0.50;;
24411;SDS011;12544;46.760;15.942;2023-08-06T08:11:05;0.63;;;0.55;;
24411;SDS011;12544;46.760;15.942;2023-08-06T08:13:32;1.75;;;0.63;;
24411;SDS011;12544;46.760;15.942;2023-08-06T08:15:59;0.82;;;0.50;;
24411;SDS011;12544;46.760;15.942;2023-08-06T08:18:25;2.03;;;0.60;;
24411;SDS011;12544;46.760;15.942;2023-08-06T08:20:51;1.95;;;0.50;;
24411;SDS011;12544;46.760;15.942;2023-08-06T08:23:17;2.50;;;0.52;;
24411;SDS011;12544;46.760;15.942;2023-08-06T08:25:42;0.73;;;0.60;;
24411;SDS011;12544;46.760;15.942;2023-08-06T08:28:08;2.22;;;0.63;;
24411;SDS011;12544;46.760;15.942;2023-08-06T08:30:34;0.68;;;0.60;;
24411;SDS011;12544;46.760;15.942;2023-08-06T08:32:59;0.98;;;0.60;;
24411;SDS011;12544;46.760;15.942;2023-08-06T08:35:25;3.30;;;1.00;;
24411;SDS011;12544;46.760;15.942;2023-08-06T08:37:51;1.15;;;0.60;;
24411;SDS011;12544;46.760;15.942;2023-08-06T08:40:16;0.60;;;0.55;;
24411;SDS011;12544;46.760;15.942;2023-08-06T08:42:42;1.40;;;0.50;;
24411;SDS011;12544;46.760;15.942;2023-08-06T08:45:15;0.60;;;0.50;;
24411;SDS011;12544;46.760;15.942;2023-08-06T08:47:43;0.82;;;0.60;;
24411;SDS011;12544;46.760;15.942;2023-08-06T08:50:09;1.45;;;0.60;;
24411;SDS011;12544;46.760;15.942;2023-08-06T08:52:36;2.13;;;0.70;;
24411;SDS011;12544;46.760;15.942;2023-08-06T08:55:03;1.00;;;0.60;;
24411;SDS011;12544;46.760;15.942;2023-08-06T08:57:29;0.50;;;0.50;;
24411;SDS011;12544;46.760;15.942;2023-08-06T08:59:55;0.60;;;0.60;;
24411;SDS011;12544;46.760;15.942;2023-08-06T09:02:21;1.27;;;0.50;;
24411;SDS011;12544;46.760;15.942;2023-08-06T09:04:49;0.47;;;0.47;;
24411;SDS011;12544;46.760;15.942;2023-08-06T09:07:18;0.73;;;0.45;;
24411;SDS011;12544;46.760;15.942;2023-08-06T09:09:46;3.20;;;0.80;;
24411;SDS011;12544;46.760;15.942;2023-08-06T09:12:15;0.80;;;0.50;;
24411;SDS011;12544;46.760;15.942;2023-08-06T09:14:42;1.40;;;0.47;;
24411;SDS011;12544;46.760;15.942;2023-08-06T09:17:08;0.60;;;0.60;;
24411;SDS011;12544;46.760;15.942;2023-08-06T09:19:35;0.40;;;0.40;;
24411;SDS011;12544;46.760;15.942;2023-08-06T09:22:02;0.45;;;0.45;;
24411;SDS011;12544;46.760;15.942;2023-08-06T09:24:28;0.47;;;0.45;;
24411;SDS011;12544;46.760;15.942;2023-08-06T09:26:53;0.50;;;0.50;;
24411;SDS011;12544;46.760;15.942;2023-08-06T09:29:19;0.93;;;0.60;;
24411;SDS011;12544;46.760;15.942;2023-08-06T09:31:48;0.50;;;0.50;;
24411;SDS011;12544;46.760;15.942;2023-08-06T09:39:14;1.10;;;0.50;;
24411;SDS011;12544;46.760;15.942;2023-08-06T09:41:44;0.32;;;0.32;;
24411;SDS011;12544;46.760;15.942;2023-08-06T09:44:22;0.75;;;0.57;;
24411;SDS011;12544;46.760;15.942;2023-08-06T09:46:53;1.20;;;0.52;;
24411;SDS011;12544;46.760;15.942;2023-08-06T09:49:42;0.60;;;0.60;;
24411;SDS011;12544;46.760;15.942;2023-08-06T09:52:11;0.47;;;0.47;;
24411;SDS011;12544;46.760;15.942;2023-08-06T09:54:38;0.43;;;0.40;;
24411;SDS011;12544;46.760;15.942;2023-08-06T09:57:04;0.43;;;0.40;;
24411;SDS011;12544;46.760;15.942;2023-08-06T09:59:30;2.47;;;0.50;;
24411;SDS011;12544;46.760;15.942;2023-08-06T10:01:58;1.10;;;0.57;;
24411;SDS011;12544;46.760;15.942;2023-08-06T10:04:23;0.60;;;0.55;;
24411;SDS011;12544;46.760;15.942;2023-08-06T10:06:50;0.82;;;0.60;;
24411;SDS011;12544;46.760;15.942;2023-08-06T10:09:16;2.42;;;0.70;;
24411;SDS011;12544;46.760;15.942;2023-08-06T10:11:47;1.27;;;0.80;;
24411;SDS011;12544;46.760;15.942;2023-08-06T10:16:55;0.80;;;0.80;;
24411;SDS011;12544;46.760;15.942;2023-08-06T10:19:23;2.05;;;0.45;;
24411;SDS011;12544;46.760;15.942;2023-08-06T10:24:54;0.75;;;0.60;;
24411;SDS011;12544;46.760;15.942;2023-08-06T10:29:47;1.70;;;0.50;;
24411;SDS011;12544;46.760;15.942;2023-08-06T10:32:16;0.50;;;0.50;;
24411;SDS011;12544;46.760;15.942;2023-08-06T10:34:58;0.57;;;0.50;;
24411;SDS011;12544;46.760;15.942;2023-08-06T10:37:35;0.40;;;0.40;;
24411;SDS011;12544;46.760;15.942;2023-08-06T10:40:02;0.88;;;0.50;;
24411;SDS011;12544;46.760;15.942;2023-08-06T10:42:29;1.35;;;0.60;;
24411;SDS011;12544;46.760;15.942;2023-08-06T10:45:10;0.90;;;0.70;;
24411;SDS011;12544;46.760;15.942;2023-08-06T10:47:43;0.77;;;0.60;;
24411;SDS011;12544;46.760;15.942;2023-08-06T10:50:13;0.60;;;0.60;;
24411;SDS011;12544;46.760;15.942;2023-08-06T10:52:43;0.70;;;0.50;;
24411;SDS011;12544;46.760;15.942;2023-08-06T10:55:10;0.40;;;0.40;;
24411;SDS011;12544;46.760;15.942;2023-08-06T10:57:35;0.70;;;0.50;;
24411;SDS011;12544;46.760;15.942;2023-08-06T11:00:03;0.95;;;0.50;;
24411;SDS011;12544;46.760;15.942;2023-08-06T11:02:33;0.60;;;0.60;;
24411;SDS011;12544;46.760;15.942;2023-08-06T11:05:04;1.13;;;0.43;;
24411;SDS011;12544;46.760;15.942;2023-08-06T11:07:34;1.17;;;0.70;;
24411;SDS011;12544;46.760;15.942;2023-08-06T11:10:01;0.68;;;0.50;;
24411;SDS011;12544;46.760;15.942;2023-08-06T11:12:28;1.25;;;0.50;;
24411;SDS011;12544;46.760;15.942;2023-08-06T11:14:53;0.50;;;0.50;;
24411;SDS011;12544;46.760;15.942;2023-08-06T11:17:19;0.50;;;0.50;;
24411;SDS011;12544;46.760;15.942;2023-08-06T11:19:44;0.60;;;0.60;;
24411;SDS011;12544;46.760;15.942;2023-08-06T11:22:10;0.40;;;0.40;;
24411;SDS011;12544;46.760;15.942;2023-08-06T11:24:37;0.50;;;0.50;;
24411;SDS011;12544;46.760;15.942;2023-08-06T11:27:10;0.43;;;0.43;;
24411;SDS011;12544;46.760;15.942;2023-08-06T11:29:39;0.60;;;0.60;;
24411;SDS011;12544;46.760;15.942;2023-08-06T11:32:06;0.80;;;0.60;;
24411;SDS011;12544;46.760;15.942;2023-08-06T11:34:33;0.57;;;0.50;;
24411;SDS011;12544;46.760;15.942;2023-08-06T11:36:59;0.40;;;0.40;;
24411;SDS011;12544;46.760;15.942;2023-08-06T11:39:24;0.77;;;0.60;;
24411;SDS011;12544;46.760;15.942;2023-08-06T11:41:50;0.70;;;0.70;;
24411;SDS011;12544;46.760;15.942;2023-08-06T11:44:19;1.38;;;0.60;;
24411;SDS011;12544;46.760;15.942;2023-08-06T11:46:54;0.50;;;0.50;;
24411;SDS011;12544;46.760;15.942;2023-08-06T11:49:43;0.60;;;0.50;;
24411;SDS011;12544;46.760;15.942;2023-08-06T11:52:14;0.50;;;0.38;;
24411;SDS011;12544;46.760;15.942;2023-08-06T11:54:59;0.30;;;0.30;;
24411;SDS011;12544;46.760;15.942;2023-08-06T11:57:31;0.50;;;0.50;;
24411;SDS011;12544;46.760;15.942;2023-08-06T12:00:03;0.57;;;0.43;;
24411;SDS011;12544;46.760;15.942;2023-08-06T12:02:31;0.55;;;0.50;;
24411;SDS011;12544;46.760;15.942;2023-08-06T12:07:41;0.30;;;0.30;;
24411;SDS011;12544;46.760;15.942;2023-08-06T12:10:12;0.50;;;0.50;;
24411;SDS011;12544;46.760;15.942;2023-08-06T12:12:38;0.50;;;0.50;;
24411;SDS011;12544;46.760;15.942;2023-08-06T12:15:04;0.40;;;0.40;;
24411;SDS011;12544;46.760;15.942;2023-08-06T12:17:31;0.75;;;0.40;;
24411;SDS011;12544;46.760;15.942;2023-08-06T12:20:00;0.82;;;0.40;;
24411;SDS011;12544;46.760;15.942;2023-08-06T12:22:27;0.50;;;0.40;;
24411;SDS011;12544;46.760;15.942;2023-08-06T12:24:52;0.40;;;0.40;;
24411;SDS011;12544;46.760;15.942;2023-08-06T12:27:18;0.30;;;0.30;;
24411;SDS011;12544;46.760;15.942;2023-08-06T12:29:44;0.40;;;0.40;;
24411;SDS011;12544;46.760;15.942;2023-08-06T12:32:12;2.03;;;0.47;;
24411;SDS011;12544;46.760;15.942;2023-08-06T12:34:39;0.77;;;0.40;;
24411;SDS011;12544;46.760;15.942;2023-08-06T12:37:05;0.47;;;0.40;;
24411;SDS011;12544;46.760;15.942;2023-08-06T12:39:35;0.52;;;0.47;;
24411;SDS011;12544;46.760;15.942;2023-08-06T12:42:02;0.52;;;0.43;;
24411;SDS011;12544;46.760;15.942;2023-08-06T12:44:30;0.57;;;0.40;;
24411;SDS011;12544;46.760;15.942;2023-08-06T12:46:56;0.40;;;0.40;;
24411;SDS011;12544;46.760;15.942;2023-08-06T12:49:22;0.30;;;0.30;;
24411;SDS011;12544;46.760;15.942;2023-08-06T12:51:50;0.47;;;0.47;;
24411;SDS011;12544;46.760;15.942;2023-08-06T12:54:19;0.40;;;0.40;;
24411;SDS011;12544;46.760;15.942;2023-08-06T12:56:48;0.90;;;0.90;;
24411;SDS011;12544;46.760;15.942;2023-08-06T12:59:15;0.70;;;0.45;;
24411;SDS011;12544;46.760;15.942;2023-08-06T13:01:41;0.50;;;0.40;;
24411;SDS011;12544;46.760;15.942;2023-08-06T13:04:08;1.95;;;0.60;;
24411;SDS011;12544;46.760;15.942;2023-08-06T13:06:34;0.55;;;0.50;;
24411;SDS011;12544;46.760;15.942;2023-08-06T13:09:04;0.50;;;0.50;;
24411;SDS011;12544;46.760;15.942;2023-08-06T13:11:34;0.57;;;0.50;;
24411;SDS011;12544;46.760;15.942;2023-08-06T13:14:10;0.80;;;0.40;;
24411;SDS011;12544;46.760;15.942;2023-08-06T13:16:37;0.40;;;0.40;;
24411;SDS011;12544;46.760;15.942;2023-08-06T13:19:06;0.40;;;0.40;;
24411;SDS011;12544;46.760;15.942;2023-08-06T13:21:33;0.47;;;0.47;;
24411;SDS011;12544;46.760;15.942;2023-08-06T13:24:05;0.60;;;0.60;;
24411;SDS011;12544;46.760;15.942;2023-08-06T13:26:30;0.68;;;0.50;;
24411;SDS011;12544;46.760;15.942;2023-08-06T13:28:57;0.50;;;0.50;;
24411;SDS011;12544;46.760;15.942;2023-08-06T13:31:23;0.52;;;0.52;;
24411;SDS011;12544;46.760;15.942;2023-08-06T13:33:49;0.57;;;0.50;;
24411;SDS011;12544;46.760;15.942;2023-08-06T13:36:15;2.53;;;0.60;;
24411;SDS011;12544;46.760;15.942;2023-08-06T13:38:41;2.72;;;0.55;;
24411;SDS011;12544;46.760;15.942;2023-08-06T13:41:07;0.47;;;0.43;;
24411;SDS011;12544;46.760;15.942;2023-08-06T13:43:33;1.10;;;0.50;;
24411;SDS011;12544;46.760;15.942;2023-08-06T13:45:58;0.40;;;0.40;;
24411;SDS011;12544;46.760;15.942;2023-08-06T13:48:24;0.77;;;0.50;;
24411;SDS011;12544;46.760;15.942;2023-08-06T13:50:49;0.82;;;0.60;;
24411;SDS011;12544;46.760;15.942;2023-08-06T13:53:15;0.40;;;0.40;;
24411;SDS011;12544;46.760;15.942;2023-08-06T13:55:41;0.40;;;0.40;;
24411;SDS011;12544;46.760;15.942;2023-08-06T13:58:06;1.10;;;0.50;;
24411;SDS011;12544;46.760;15.942;2023-08-06T14:00:32;2.83;;;0.50;;
24411;SDS011;12544;46.760;15.942;2023-08-06T14:02:58;0.88;;;0.60;;
24411;SDS011;12544;46.760;15.942;2023-08-06T14:05:24;0.47;;;0.47;;
24411;SDS011;12544;46.760;15.942;2023-08-06T14:07:49;0.93;;;0.60;;
24411;SDS011;12544;46.760;15.942;2023-08-06T14:10:15;0.60;;;0.60;;
24411;SDS011;12544;46.760;15.942;2023-08-06T14:12:41;0.40;;;0.40;;
24411;SDS011;12544;46.760;15.942;2023-08-06T14:15:06;0.63;;;0.60;;
24411;SDS011;12544;46.760;15.942;2023-08-06T14:17:32;0.60;;;0.60;;
24411;SDS011;12544;46.760;15.942;2023-08-06T14:19:58;0.85;;;0.50;;
24411;SDS011;12544;46.760;15.942;2023-08-06T14:22:31;0.50;;;0.43;;
24411;SDS011;12544;46.760;15.942;2023-08-06T14:24:59;0.50;;;0.50;;
24411;SDS011;12544;46.760;15.942;2023-08-06T14:27:25;1.45;;;0.60;;
24411;SDS011;12544;46.760;15.942;2023-08-06T14:29:55;0.63;;;0.63;;
24411;SDS011;12544;46.760;15.942;2023-08-06T14:32:23;2.80;;;0.98;;
24411;SDS011;12544;46.760;15.942;2023-08-06T14:34:56;0.45;;;0.40;;
24411;SDS011;12544;46.760;15.942;2023-08-06T14:37:23;0.60;;;0.50;;
24411;SDS011;12544;46.760;15.942;2023-08-06T14:39:51;0.63;;;0.60;;
24411;SDS011;12544;46.760;15.942;2023-08-06T14:45:19;0.43;;;0.43;;
24411;SDS011;12544;46.760;15.942;2023-08-06T14:48:02;0.40;;;0.40;;
24411;SDS011;12544;46.760;15.942;2023-08-06T14:53:02;1.10;;;0.50;;
24411;SDS011;12544;46.760;15.942;2023-08-06T14:55:29;0.60;;;0.60;;
24411;SDS011;12544;46.760;15.942;2023-08-06T15:00:30;1.73;;;0.68;;
24411;SDS011;12544;46.760;15.942;2023-08-06T15:02:56;1.75;;;0.55;;